Terminal Aerodrome Forecast
Issued by NWS Austin/San Antonio, TX

Home | Current Version | Previous Version | Text Only | Print | Product List | Glossary On
Versions: 1 2 3 4 5 6 7 8 9 10 11 12 13 14
074
FTUS44 KEWX 222321
TAFDRT
TAF
KDRT 222321Z 2300/2324 13008KT P6SM FEW070
     FM230200 09007KT P6SM SKC
     FM231500 14010KT P6SM FEW040=

USA.gov is the U.S. government's official web portal to all federal, state and local government web resources and services.